NCAR-RAP Real-Time Weather Data

Output produced by METARs form (21 May 2019  11:27 UTC)
found at http://weather.rap.ucar.edu/surface/
 
RJFF 211100Z 28006KT 190V320 CAVOK 19/08 Q1007 BECMG 21005KT RMK A2975
RJFF 211030Z 31006KT 260V340 CAVOK 19/09 Q1007 NOSIG RMK A2975
RJFF 211000Z 32009KT 280V350 CAVOK 19/09 Q1007 NOSIG RMK A2974
RJFF 210930Z 31010KT CAVOK 20/05 Q1007 NOSIG RMK A2974
RJFF 210900Z 31009KT CAVOK 21/06 Q1006 NOSIG RMK A2973
RJFF 210830Z 30007KT 260V350 CAVOK 20/08 Q1006 NOSIG RMK A2973
RJFF 210800Z 34012KT CAVOK 21/09 Q1006 NOSIG RMK A2973
RJFF 210730Z 33010KT CAVOK 21/09 Q1006 NOSIG RMK A2973
RJFF 210700Z 32010KT CAVOK 21/08 Q1006 NOSIG RMK A2973
RJFF 210630Z 30013KT CAVOK 21/07 Q1007 NOSIG RMK A2974
RJFF 210600Z 30012KT CAVOK 21/06 Q1007 NOSIG RMK A2974
RJFF 210530Z 33013KT CAVOK 21/06 Q1007 NOSIG RMK A2974
RJFF 210500Z 32010KT 280V360 CAVOK 21/07 Q1007 NOSIG RMK A2974
RJFF 210430Z 31009KT 270V340 CAVOK 21/08 Q1007 NOSIG RMK A2974
RJFF 210400Z 29010KT CAVOK 21/08 Q1007 NOSIG RMK A2974
RJFF 210330Z 30010KT 250V340 CAVOK 21/08 Q1007 NOSIG RMK A2975
RJFF 210300Z 30012KT 260V010 CAVOK 20/06 Q1007 NOSIG RMK A2975
RJFF 210230Z 30012KT 9999 FEW030 BKN/// 21/08 Q1007 NOSIG
RJFF 210200Z 31011KT 280V340 9999 FEW030 BKN/// 20/07 Q1007 NOSIG
RJFF 210130Z 32009KT 270V020 9999 FEW030 BKN/// 20/08 Q1007 NOSIG
RJFF 210100Z 33010KT 290V360 9999 FEW030 SCT/// 20/08 Q1007 NOSIG
RJFF 210030Z 33010KT 9999 FEW020 19/09 Q1008 NOSIG RMK 1CU020 A2977
RJFF 210000Z 33009KT 290V360 9999 FEW040 SCT/// 19/09 Q1008 NOSIG
RJFF 202330Z 30009KT 250V320 9999 FEW040 SCT/// 18/08 Q1008 NOSIG
RJFF 202300Z 36005KT 320V040 CAVOK 18/11 Q1008 NOSIG RMK A2977
RJFF 202230Z VRB01KT CAVOK 16/12 Q1008 BECMG FM2330 29008KT
RJFF 202200Z 15003KT 9999 FEW040 BKN/// 15/12 Q1007 BECMG 29009KT
RJFF 202130Z VRB01KT CAVOK 14/12 Q1007 NOSIG RMK A2976
RJFF 202100Z VRB02KT CAVOK 13/12 Q1007 NOSIG RMK A2975
RJFF 202030Z AUTO VRB02KT 9999 NCD 13/11 Q1007 NOSIG RMK A2975
RJFF 202000Z AUTO VRB01KT 9999 NCD 13/11 Q1007 NOSIG RMK A2975
RJFF 201930Z AUTO 13003KT 090V160 9999 NCD 13/12 Q1007 NOSIG RMK A2974
RJFF 201900Z AUTO 15005KT 9999 NCD 13/11 Q1007 NOSIG RMK A2974
RJFF 201830Z AUTO 14006KT 9999 NCD 14/11 Q1007 BECMG 33007KT
RJFF 201800Z AUTO 05003KT 360V080 9999 NCD 14/11 Q1007 NOSIG RMK A2974
RJFF 201730Z AUTO 33007KT 9999 NCD 15/11 Q1006 NOSIG RMK A2973
RJFF 201700Z AUTO 30006KT 270V330 9999 NCD 15/10 Q1006 NOSIG RMK A2973
RJFF 201630Z AUTO 27005KT 220V300 9999 NCD 17/10 Q1006 NOSIG RMK A2973
RJFF 201600Z AUTO 29007KT 9999 NCD 17/10 Q1006 NOSIG RMK A2972
RJFF 201530Z AUTO 28008KT 240V310 9999 NCD 17/10 Q1006 NOSIG RMK A2972
RJFF 201500Z AUTO 28007KT 9999 NSC 16/12 Q1006 NOSIG RMK A2972
RJFF 201430Z AUTO VRB02KT 9999 NSC 15/12 Q1006 BECMG 30007KT
RJFF 201400Z AUTO 24004KT 210V280 9999 NCD 17/11 Q1006 BECMG 30008KT
RJFF 201330Z 24004KT 200V280 CAVOK 17/11 Q1006 BECMG 30011KT
RJFF 201300Z 27006KT 210V310 CAVOK 17/11 Q1006 NOSIG RMK A2972
RJFF 201230Z 26007KT 210V310 CAVOK 18/11 Q1006 NOSIG RMK A2972
RJFF 201200Z 25008KT 200V280 CAVOK 18/12 Q1006 NOSIG RMK A2971
RJFF 201130Z 29007KT 190V320 9999 FEW020 SCT170 BKN/// 18/13 Q1005 NOSIG
RJFF 201100Z 26006KT 190V330 9999 FEW015 SCT170 BKN/// 18/11 Q1005 NOSIG RMK 1CU015 3AC170 A2969
RJFF 201030Z 26007KT 200V290 9999 FEW010 SCT140 BKN160 19/11 Q1004 NOSIG RMK 1ST010 3AC140 6AC160 A2967
RJFF 201000Z 25007KT 210V310 9999 -RA FEW010 SCT100 BKN120 19/13 Q1004 NOSIG RMK 1ST010 3AC100 6AC120 A2967
RJFF 200930Z 28010KT 220V320 9999 FEW008 BKN020 BKN030 19/15 Q1004 NOSIG RMK 1ST008 5CU020 7CU030 A2967
RJFF 200900Z 28008KT 240V320 9999 -RA FEW008 BKN020 BKN110 20/17 Q1004 NOSIG RMK 1ST008 5CU020 7AC110 A2965
RJFF 200830Z VRB04KT 9999 -RA FEW008 SCT020 BKN110 20/17 Q1003 BECMG 30010KT
RJFF 200800Z VRB08KT 9999 -RA FEW005 BKN020 OVC100 20/17 Q1004 BECMG 30010KT TEMPO TL0900 4000 -SHRA BR FEW005 BKN008 BKN015
RJFF 200730Z VRB01KT 9999 -RA FEW005 BKN030 OVC100 20/18 Q1004 BECMG 30010KT TEMPO 4000 -SHRA BR FEW005 BKN008 BKN015
RJFF 200709Z VRB05KT 9999 -RA FEW005 SCT040 BKN100 20/18 Q1004 RMK 1ST005 3CU040 6AC100 A2965
RJFF 200700Z VRB04KT 9999 -SHRA FEW005 SCT008 BKN010 20/17 Q1003 BECMG 31011KT TEMPO 4000 -SHRA BR FEW005 BKN008 BKN015 RMK 1ST005 3ST008 5CU010 A2964
RJFF 200630Z 29010KT 9000 -SHRA FEW005 SCT008 BKN010 19/18 Q1004 TEMPO 4000 -SHRA BR FEW005 BKN008 BKN015 RMK 1ST005 3ST008 5CU010 A2966
RJFF 200600Z 31007KT 270V350 5000 -SHRA BR FEW003 SCT005 BKN008 19/18 Q1004 TEMPO 4000 -SHRA BR RMK 1ST003 3ST005 5ST008 A2967
RJFF 200530Z 30012KT 3500 SHRA BR FEW003 SCT005 BKN007 19/18 Q1004 NOSIG RMK 1ST003 3ST005 5ST007 A2966
RJFF 200513Z 31011KT 2500 +SHRA BR FEW003 SCT005 BKN007 19/18 Q1004 RMK 1ST003 3ST005 5ST007 A2966
RJFF 200500Z 32010KT 4000 SHRA BR FEW003 SCT005 BKN007 19/18 Q1004 NOSIG RMK 1ST003 3ST005 5ST007 A2967
RJFF 200430Z 33010KT 3500 R34/2000N SHRA BR FEW003 SCT005 BKN008 19/19 Q1004 TEMPO 2000 SHRA BR
RJFF 200418Z 31006KT 250V350 2000 +SHRA BR FEW003 SCT005 BKN008 19/19 Q1005 RMK 1ST003 3ST005 5ST008 A2969
RJFF 200411Z 33007KT 290V350 3000 SHRA BR FEW003 SCT005 BKN007 19/18 Q1005 RMK 1ST003 3ST005 5ST007 A2968
RJFF 200400Z 32008KT 280V340 4000 +SHRA BR FEW003 SCT005 BKN007 19/18 Q1004 TEMPO -SHRA
RJFF 200341Z 30012KT 280V340 4000 SHRA BR FEW005 SCT007 BKN009 20/19 Q1004 RMK 1ST005 3ST007 5ST009 A2967
RJFF 200330Z 31009KT 9000 -SHRA FEW005 SCT007 BKN009 20/18 Q1004 NOSIG RMK 1ST005 3ST007 5ST009 A2967
RJFF 200300Z 31008KT 280V010 9999 FEW007 BKN010 BKN012 21/18 Q1004 NOSIG RMK 2ST007 5CU010 6CU012 A2967
RJFF 200230Z 32012KT 9999 FEW007 SCT010 BKN012 21/18 Q1005 NOSIG RMK 1ST007 3CU010 5CU012 A2968
RJFF 200225Z 32013KT 9999 FEW007 SCT010 BKN012 22/19 Q1005 RMK 1ST007 3CU010 5CU012 A2968
RJFF 200200Z 32013KT 9999 SCT010 BKN015 BKN030 22/18 Q1005 NOSIG RMK 3CU010 5CU015 6CU030 A2968
RJFF 200130Z 33010KT 270V350 9999 FEW010 SCT035 BKN050 22/19 Q1004 NOSIG RMK 1CU010 3CU035 5SC050 A2966
RJFF 200100Z 31013KT 9999 FEW010 SCT050 BKN/// 23/19 Q1004 NOSIG RMK 1CU010 4SC050 A2967
RJFF 200030Z 32010KT 280V350 9999 FEW010 24/19 Q1004 NOSIG RMK 1CU010 A2966
RJFF 200000Z 29010KT 260V320 9999 FEW020 BKN050 26/18 Q1004 NOSIG RMK 1CU020 5SC050 A2967
RJFF 192330Z 15008KT 120V180 9999 FEW020 SCT050 25/19 Q1004 BECMG FM0030 30008KT
RJFF 192300Z 18007KT 160V220 9999 FEW020 SCT050 25/19 Q1004 NOSIG RMK 1CU020 3SC050 A2967
RJFF 192230Z 16008KT 140V200 9999 FEW025 24/19 Q1005 NOSIG RMK 1CU025 A2968
RJFF 192200Z 19008KT 9999 FEW025 BKN/// 23/19 Q1005 NOSIG
RJFF 192130Z 20005KT 160V220 9999 FEW025 SCT045 22/19 Q1005 NOSIG RMK 1CU025 4CU045 A2969
RJFF 192100Z 16008KT 9999 FEW020 SCT040 21/19 Q1005 NOSIG RMK 1CU020 4CU040 A2969
RJFF 192030Z AUTO 17008KT 9999 NSC 21/19 Q1005 NOSIG RMK A2970
RJFF 192000Z AUTO 17005KT 9999 NSC 21/19 Q1005 NOSIG RMK A2969
RJFF 191930Z AUTO 15009KT 9999 FEW022 BKN060 BKN080 21/19 Q1005 NOSIG RMK A2970
RJFF 191900Z AUTO 15006KT 120V180 9999 NSC 21/19 Q1006 NOSIG RMK A2971
RJFF 191830Z AUTO 14007KT 9999 NSC 21/19 Q1006 NOSIG RMK A2972
RJFF 191800Z AUTO 13005KT 100V190 9999 NSC 22/19 Q1006 NOSIG RMK A2972
RJFF 191730Z AUTO 15009KT 9999 NSC 22/19 Q1006 NOSIG RMK A2972
RJFF 191700Z AUTO 13007KT 090V190 9999 NSC 23/18 Q1006 NOSIG RMK A2973
RJFF 191630Z AUTO 16006KT 9999 NSC 22/18 Q1007 NOSIG RMK A2974
RJFF 191600Z AUTO 14007KT 9999 NSC 23/18 Q1007 NOSIG RMK A2975
RJFF 191530Z AUTO 11003KT 040V210 9999 NSC 23/18 Q1007 NOSIG RMK A2976
RJFF 191500Z AUTO 15007KT 9999 NSC 23/18 Q1008 NOSIG RMK A2977
RJFF 191430Z AUTO 16009KT 9999 NSC 23/18 Q1008 NOSIG RMK A2978
RJFF 191400Z AUTO 15011KT 9999 NSC 23/18 Q1008 NOSIG RMK A2979
RJFF 191330Z 15015KT 9999 FEW030 SCT050 BKN100 24/18 Q1008 NOSIG RMK 1CU030 3SC050 6AC100 A2979
RJFF 191300Z 15010KT 9999 -RA FEW030 SCT080 BKN100 25/17 Q1008 NOSIG RMK 1CU030 3AC080 7AC100 A2979
RJFF 191230Z 13011KT 080V150 9999 -RA FEW030 SCT080 BKN100 25/17 Q1008 NOSIG RMK 1CU030 3AC080 7AC100 A2979
RJFF 191200Z 13010KT 9999 -RA FEW025 SCT050 BKN080 25/17 Q1008 NOSIG RMK 1CU025 3SC050 6AC080 A2979
RJFF 191130Z 10006KT 9999 FEW025 SCT070 BKN090 25/17 Q1008 NOSIG RMK 1CU025 3AC070 6AC090 A2979
RJFF 191100Z 10008KT 070V140 9999 FEW015 SCT070 BKN090 25/17 Q1008 NOSIG RMK 1CU015 3AC070 7AC090 A2979
RJFF 191030Z 09008KT 050V120 9999 FEW015 SCT070 BKN090 25/17 Q1008 NOSIG RMK 1CU015 4AC070 7AC090 A2979
RJFF 191000Z 09008KT 9999 FEW015 SCT050 BKN080 26/17 Q1008 NOSIG RMK 1CU015 4SC050 7AC080 A2978
RJFF 190930Z 10007KT 040V150 9999 FEW015 SCT050 BKN080 26/17 Q1008 NOSIG RMK 1CU015 3SC050 7AC080 A2978
RJFF 190900Z VRB12KT 9999 FEW015 BKN090 26/17 Q1008 BECMG 13012KT
RJFF 190830Z 14012KT 100V170 9999 FEW020 SCT080 BKN100 26/17 Q1008 NOSIG RMK 1CU020 4AC080 6AC100 A2977
RJFF 190806Z 14018G28KT 9999 FEW020 SCT060 BKN100 27/17 Q1008 RMK 1CU020 3SC060 6AC100 A2977
RJFF 190800Z 14019KT 9999 FEW025 SCT060 BKN100 27/17 Q1008 NOSIG RMK 1CU025 3SC060 6AC100 A2977
RJFF 190730Z 13015KT 100V170 9999 FEW025 SCT090 BKN110 27/17 Q1008 NOSIG RMK 1CU025 3AC090 6AC110 A2977
RJFF 190700Z 10008KT 060V130 9999 FEW025 BKN110 27/17 Q1008 NOSIG RMK 1CU025 7AC110 A2977
RJFF 190630Z 10009KT 060V130 9999 FEW025 SCT100 BKN150 26/18 Q1008 NOSIG RMK 1CU025 3AC100 6AC150 A2977
RJFF 190600Z 09010KT 060V130 9999 FEW025 SCT130 BKN150 25/17 Q1008 NOSIG RMK 1CU025 3AC130 6AC150 A2977
RJFF 190530Z 09012KT 050V120 9999 FEW025 SCT090 BKN140 25/18 Q1008 NOSIG RMK 1CU025 3AC090 5AC140 A2978
RJFF 190500Z 10013KT 9999 FEW020 SCT080 BKN100 26/17 Q1008 NOSIG RMK 1CU020 3AC080 5AC100 A2978
RJFF 190430Z 09012KT 060V130 9999 FEW020 SCT060 BKN090 26/17 Q1009 NOSIG RMK 1CU020 3SC060 6AC090 A2980
RJFF 190400Z 10010KT 9999 FEW020 SCT040 BKN090 26/17 Q1009 NOSIG RMK 1CU020 3CU040 5AC090 A2981
RJFF 190330Z 10012KT 9999 FEW020 SCT040 BKN090 26/17 Q1009 NOSIG RMK 1CU020 3CU040 6AC090 A2982
RJFF 190300Z 11014G24KT 060V150 9999 FEW020 SCT060 BKN090 26/17 Q1009 NOSIG RMK 1CU020 3SC060 6AC090 A2982
RJFF 190230Z 14016KT 9999 FEW020 SCT060 BKN080 26/17 Q1010 NOSIG RMK 1CU020 3SC060 6AC080 A2983
RJFF 190200Z 13008KT 090V170 9999 FEW020 SCT060 BKN080 25/17 Q1010 NOSIG RMK 1CU020 3SC060 6AC080 A2983
RJFF 190130Z 12012KT 090V160 9999 -RA FEW020 SCT050 BKN080 25/17 Q1010 NOSIG RMK 1CU020 3SC050 5AC080 A2983
RJFF 190100Z 12013KT 9999 FEW020 SCT080 BKN100 25/18 Q1010 NOSIG RMK 1CU020 3AC080 7AC100 A2983
RJFF 190030Z 13012KT 9999 FEW020 SCT080 BKN100 24/18 Q1010 NOSIG RMK 1CU020 3AC080 7AC100 A2983
RJFF 190000Z 13014KT 9999 FEW020 SCT080 BKN100 24/17 Q1010 NOSIG RMK 1CU020 3AC080 7AC100 A2983
RJFF 182330Z 12010KT 090V160 9999 FEW020 SCT100 BKN120 24/17 Q1010 NOSIG RMK 1CU020 3AC100 7AC120 A2984